Bluegrove, Texas
Current Conditions -  °F | °C
As of 10:35 PM on Monday 20 Oct 2014 (Local Time) from KCWC Reporting Station
Clear Clear  
Wind Chill: 66°   Ceiling: Unl
Heat Index: 66°   Visibility: 10mi
Dew Point: 58°   Wind: 3mph
Humidity: 76%   Direction: 170°S
Pressure: 30.06"   Gusts: NA
Location:  33.67°N, 98.23°W
Report Text: KCWC 210335Z AUTO 17003KT 10SM CLR 19/15 A3006 RMK AO2 T01880145
Loading
Personal Weather Stations






























Interactive Weather Map
Tropical Storm Tracking
New forecast layout! Learn more

10-Day Weather Forecast

Advertisements
Track Severe Weather on mobile